Time;durP1;ratioP1;P1;durP2;ratioP2;P2;SDS_P1;SDS_P2;PMS_P1;PMS_P2;Temp;Humidity;BMP_temperature;BMP_pressure;BME280_temperature;BME280_humidity;BME280_pressure;Samples;Min_cycle;Max_cycle;Signal;HPM_P1;HPM_P2
2022/03/24 00:00:38;;;;;;;32.42;21.63;;;;;;;;;;4994386;28;20066;-60
2022/03/24 00:03:08;;;;;;;36.22;20.83;;;6.90;99.90;;;;;;4977731;28;20127;-60
2022/03/24 00:05:34;;;;;;;32.22;21.48;;;;;;;;;;4976898;28;20073;-58
2022/03/24 00:08:00;;;;;;;35.45;19.70;;;;;;;;;;4993882;28;20046;-61
2022/03/24 00:10:26;;;;;;;30.42;20.05;;;;;;;;;;4977499;28;20381;-60
2022/03/24 00:12:52;;;;;;;31.23;19.38;;;;;;;;;;4994426;28;20128;-58
2022/03/24 00:15:19;;;;;;;31.02;20.00;;;;;;;;;;4976923;28;20128;-60
2022/03/24 00:17:45;;;;;;;30.95;21.25;;;;;;;;;;4993486;28;20039;-58
2022/03/24 00:22:55;;;;;;;35.25;23.42;;;;;;;;;;5194233;23;20515;-60
2022/03/24 00:25:21;;;;;;;34.65;22.88;;;;;;;;;;4976953;28;20046;-59
2022/03/24 00:27:47;;;;;;;41.40;24.10;;;;;;;;;;4977203;28;20091;-60
2022/03/24 00:30:13;;;;;;;31.65;21.42;;;6.50;99.90;;;;;;4993086;28;20046;-59
2022/03/24 00:32:39;;;;;;;33.17;21.05;;;;;;;;;;5053724;28;20050;-58
2022/03/24 00:35:04;;;;;;;33.28;21.33;;;6.60;99.90;;;;;;4994345;28;20037;-59
2022/03/24 00:37:31;;;;;;;33.38;20.92;;;6.30;99.90;;;;;;5061568;28;20054;-59
2022/03/24 00:40:00;;;;;;;42.95;24.10;;;;;;;;;;5061755;28;20049;-60
2022/03/24 00:42:26;;;;;;;39.20;23.80;;;;;;;;;;4993833;28;20050;-60
2022/03/24 00:44:52;;;;;;;38.85;22.45;;;;;;;;;;4993866;28;20046;-60
2022/03/24 00:47:17;;;;;;;35.97;23.92;;;6.10;99.90;;;;;;4993629;28;20074;-59
2022/03/24 00:49:43;;;;;;;48.60;25.92;;;6.10;99.90;;;;;;4994160;28;20423;-59
2022/03/24 00:52:09;;;;;;;38.30;25.65;;;;;;;;;;5060256;28;20049;-59
2022/03/24 00:54:35;;;;;;;40.92;26.02;;;;;;;;;;4993980;28;20046;-59
2022/03/24 00:57:01;;;;;;;40.38;25.55;;;;;;;;;;4993974;28;20095;-60
2022/03/24 00:59:27;;;;;;;41.42;24.85;;;;;;;;;;4994168;28;20046;-59
2022/03/24 01:01:55;;;;;;;45.00;25.83;;;;;;;;;;4993591;28;20046;-59
2022/03/24 01:04:21;;;;;;;37.85;24.85;;;;;;;;;;5061613;28;20562;-59
2022/03/24 01:06:47;;;;;;;47.22;25.58;;;5.80;99.90;;;;;;5060636;28;20043;-59
2022/03/24 01:09:13;;;;;;;41.20;26.30;;;;;;;;;;5044098;28;20053;-59
2022/03/24 01:11:39;;;;;;;45.55;26.48;;;5.70;99.90;;;;;;4993932;28;20412;-58
2022/03/24 01:14:05;;;;;;;38.20;23.20;;;5.60;99.90;;;;;;5061181;28;20192;-59
2022/03/24 01:16:31;;;;;;;39.03;23.70;;;5.80;99.90;;;;;;5060393;28;20053;-59
2022/03/24 01:18:57;;;;;;;37.22;22.75;;;;;;;;;;5043876;28;20045;-60
2022/03/24 01:21:23;;;;;;;37.08;23.70;;;5.70;99.90;;;;;;4992743;28;20571;-60
2022/03/24 01:23:49;;;;;;;38.10;22.92;;;;;;;;;;5060075;28;20160;-58
2022/03/24 01:26:16;;;;;;;34.05;21.85;;;;;;;;;;5043495;28;20125;-59
2022/03/24 01:29:16;;;;;;;35.55;22.50;;;5.80;99.90;;;;;;4993076;28;20038;-59
2022/03/24 01:31:42;;;;;;;40.20;22.35;;;;;;;;;;5060117;28;20049;-58
2022/03/24 01:34:09;;;;;;;35.67;22.70;;;5.80;99.90;;;;;;5060531;28;20126;-58
2022/03/24 01:36:35;;;;;;;36.30;22.20;;;;;;;;;;4993187;28;20050;-59
2022/03/24 01:39:01;;;;;;;35.95;22.67;;;;;;;;;;4993726;28;20046;-60
2022/03/24 01:41:27;;;;;;;33.45;21.13;;;5.60;99.90;;;;;;5059629;28;20042;-57
2022/03/24 01:43:53;;;;;;;29.70;19.77;;;;;;;;;;5060262;28;20053;-59
2022/03/24 01:46:23;;;;;;;35.47;22.55;;;;;;;;;;5059356;28;20089;-58
2022/03/24 01:48:49;;;;;;;32.80;20.55;;;;;;;;;;5059476;28;20049;-59
2022/03/24 01:51:15;;;;;;;30.98;20.00;;;;;;;;;;5059773;28;20046;-59
2022/03/24 01:53:59;;;;;;;35.58;21.25;;;;;;;;;;5043284;28;20038;-59
2022/03/24 01:56:26;;;;;;;33.60;21.65;;;;;;;;;;4993095;28;20050;-60
2022/03/24 01:58:53;;;;;;;35.53;21.20;;;4.90;99.90;;;;;;5059816;28;20043;-58
2022/03/24 02:01:27;;;;;;;37.00;20.73;;;;;;;;;;4992723;28;20042;-58
2022/03/24 02:03:55;;;;;;;27.45;17.67;;;5.10;99.90;;;;;;4992454;28;20099;-59
2022/03/24 02:06:21;;;;;;;30.92;19.02;;;;;;;;;;4991788;28;20480;-59
2022/03/24 02:08:47;;;;;;;33.20;20.63;;;;;;;;;;4993411;28;20080;-59
2022/03/24 02:11:12;;;;;;;29.90;18.98;;;5.20;99.90;;;;;;5059868;28;20030;-59
2022/03/24 02:13:38;;;;;;;33.38;20.55;;;5.10;99.90;;;;;;5059657;28;20117;-58
2022/03/24 02:16:12;;;;;;;31.85;21.50;;;5.00;99.90;;;;;;4993130;28;20049;-59
2022/03/24 02:18:38;;;;;;;30.30;18.50;;;5.10;99.90;;;;;;5060461;28;20042;-58
2022/03/24 02:21:04;;;;;;;24.58;16.45;;;;;;;;;;4992608;28;20555;-59
2022/03/24 02:23:30;;;;;;;27.10;17.00;;;;;;;;;;5059418;28;20058;-59
2022/03/24 02:25:56;;;;;;;28.40;16.65;;;;;;;;;;4992173;28;20050;-59
2022/03/24 02:28:23;;;;;;;35.45;22.15;;;;;;;;;;4992838;28;20038;-59
2022/03/24 02:30:51;;;;;;;32.90;21.33;;;4.70;99.90;;;;;;5059719;28;20047;-59
2022/03/24 02:33:21;;;;;;;37.35;20.83;;;4.80;99.90;;;;;;5059719;28;20042;-59
2022/03/24 02:35:48;;;;;;;33.15;20.08;;;4.70;99.90;;;;;;5059671;28;20072;-58
2022/03/24 02:38:15;;;;;;;33.15;20.55;;;;;;;;;;4992741;28;20042;-59
2022/03/24 02:40:43;;;;;;;35.65;20.88;;;;;;;;;;5062759;28;20046;-60
2022/03/24 02:43:09;;;;;;;39.80;20.73;;;;;;;;;;4995868;28;20057;-59
2022/03/24 02:45:35;;;;;;;32.22;19.85;;;4.50;99.90;;;;;;4995551;28;20046;-58
2022/03/24 02:48:02;;;;;;;29.88;19.73;;;4.50;99.90;;;;;;5063810;28;20043;-58
2022/03/24 02:50:28;;;;;;;34.22;20.42;;;;;;;;;;4995209;28;20070;-59
2022/03/24 02:52:54;;;;;;;34.92;21.52;;;;;;;;;;5062940;28;20053;-58
2022/03/24 02:55:20;;;;;;;33.60;20.38;;;;;;;;;;5063384;28;20042;-59
2022/03/24 02:57:45;;;;;;;30.13;19.42;;;4.60;99.90;;;;;;4993047;28;20085;-58
2022/03/24 03:00:12;;;;;;;27.98;18.23;;;;;;;;;;4975511;28;20078;-58
2022/03/24 03:02:39;;;;;;;36.30;22.95;;;;;;;;;;4976353;28;20042;-57
2022/03/24 03:05:05;;;;;;;34.22;19.75;;;;;;;;;;4976747;28;20404;-58
2022/03/24 03:07:32;;;;;;;32.75;20.92;;;;;;;;;;5043024;28;20047;-58
2022/03/24 03:09:58;;;;;;;35.72;21.10;;;;;;;;;;4975760;28;20070;-57
2022/03/24 03:12:27;;;;;;;39.65;22.98;;;;;;;;;;5043050;28;20115;-58
2022/03/24 03:14:56;;;;;;;35.00;22.17;;;;;;;;;;5043325;28;20131;-57
2022/03/24 03:17:22;;;;;;;36.58;22.67;;;;;;;;;;4976418;28;20394;-58
2022/03/24 03:19:48;;;;;;;46.60;27.13;;;;;;;;;;4976516;28;20121;-58
2022/03/24 03:22:16;;;;;;;45.03;27.27;;;4.30;99.90;;;;;;5025869;28;20074;-58
2022/03/24 03:24:43;;;;;;;43.88;26.05;;;;;;;;;;4976099;28;20373;-57
2022/03/24 03:27:09;;;;;;;37.92;24.70;;;;;;;;;;5042482;28;20125;-57
2022/03/24 03:29:35;;;;;;;39.75;25.80;;;;;;;;;;5042209;28;20468;-59
2022/03/24 03:32:02;;;;;;;44.38;25.40;;;4.30;99.90;;;;;;4974928;28;20085;-60
2022/03/24 03:34:28;;;;;;;39.03;24.42;;;4.50;99.90;;;;;;5041995;28;20027;-60
2022/03/24 03:36:54;;;;;;;36.50;22.90;;;4.30;99.90;;;;;;5041813;28;20054;-58
2022/03/24 03:39:20;;;;;;;33.05;20.85;;;4.20;99.90;;;;;;5042606;28;20043;-61
2022/03/24 03:41:46;;;;;;;37.13;22.98;;;;;;;;;;4975292;28;20046;-60
2022/03/24 03:44:12;;;;;;;37.40;22.30;;;;;;;;;;4975859;28;20042;-61
2022/03/24 03:47:05;;;;;;;43.40;25.52;;;4.20;99.90;;;;;;4994203;28;20471;-60
2022/03/24 03:49:31;;;;;;;37.67;24.08;;;;;;;;;;4993664;28;20050;-60
2022/03/24 03:51:58;;;;;;;46.40;27.65;;;;;;;;;;4993605;28;20046;-60
2022/03/24 03:54:24;;;;;;;42.00;26.92;;;;;;;;;;5061723;28;20046;-61
2022/03/24 03:56:49;;;;;;;42.08;24.95;;;4.00;99.90;;;;;;5061006;28;20047;-60
2022/03/24 03:59:15;;;;;;;46.63;26.85;;;;;;;;;;5061489;28;20057;-60
2022/03/24 04:01:41;;;;;;;49.65;27.33;;;;;;;;;;4993638;28;20125;-60
2022/03/24 04:04:12;;;;;;;46.30;27.33;;;;;;;;;;5061567;28;20058;-60
2022/03/24 04:06:38;;;;;;;40.05;25.10;;;;;;;;;;4993996;28;20399;-60
2022/03/24 04:09:04;;;;;;;41.97;25.33;;;;;;;;;;4994134;28;20042;-60
2022/03/24 04:11:30;;;;;;;44.47;28.48;;;;;;;;;;5145406;23;20054;-60
2022/03/24 04:13:56;;;;;;;48.80;28.00;;;;;;;;;;4995390;28;20046;-60
2022/03/24 04:16:22;;;;;;;44.67;26.80;;;4.00;99.90;;;;;;4995838;28;20045;-60
2022/03/24 04:18:48;;;;;;;46.45;27.30;;;;;;;;;;5013430;28;20130;-59
2022/03/24 04:21:14;;;;;;;39.70;23.80;;;4.00;99.90;;;;;;4979791;28;20134;-60
2022/03/24 04:23:41;;;;;;;43.00;26.92;;;4.00;99.90;;;;;;5013019;28;20044;-60
2022/03/24 04:26:07;;;;;;;45.25;27.80;;;3.80;99.90;;;;;;5013034;28;20046;-60
2022/03/24 04:28:33;;;;;;;47.55;28.65;;;3.80;99.90;;;;;;5013131;28;20045;-61
2022/03/24 04:30:59;;;;;;;51.97;29.83;;;;;;;;;;4995242;28;20034;-60
2022/03/24 04:33:25;;;;;;;49.78;27.88;;;;;;;;;;5012942;28;20042;-60
2022/03/24 04:35:52;;;;;;;59.63;30.38;;;3.80;99.90;;;;;;5012739;28;20487;-60
2022/03/24 04:38:18;;;;;;;48.45;28.90;;;;;;;;;;4995876;28;20376;-61
2022/03/24 04:40:44;;;;;;;51.33;32.00;;;;;;;;;;5012557;28;20037;-60
2022/03/24 04:43:10;;;;;;;41.35;25.27;;;;;;;;;;5012896;28;20042;-59
2022/03/24 04:45:36;;;;;;;43.50;26.80;;;3.90;99.90;;;;;;4995132;28;20042;-60
2022/03/24 04:48:02;;;;;;;47.28;28.30;;;3.60;99.90;;;;;;4995390;28;20034;-60
2022/03/24 04:50:29;;;;;;;45.70;28.55;;;;;;;;;;4995526;28;20082;-60
2022/03/24 04:52:56;;;;;;;44.30;28.40;;;;;;;;;;4995271;28;20050;-60
2022/03/24 04:55:22;;;;;;;54.30;30.58;;;;;;;;;;4995375;28;20042;-59
2022/03/24 04:57:48;;;;;;;52.65;29.70;;;;;;;;;;5012590;28;20052;-60
2022/03/24 05:00:17;;;;;;;47.80;29.17;;;;;;;;;;5000014;28;20665;-60
2022/03/24 05:02:44;;;;;;;50.25;30.40;;;;;;;;;;4991980;28;20047;-60
2022/03/24 05:05:10;;;;;;;51.05;27.15;;;;;;;;;;4975168;28;20074;-60
2022/03/24 05:07:36;;;;;;;48.80;29.58;;;;;;;;;;4974971;28;20077;-60
2022/03/24 05:10:03;;;;;;;43.20;26.90;;;;;;;;;;5000565;28;20053;-60
2022/03/24 05:12:30;;;;;;;40.50;25.35;;;;;;;;;;5641563;23;20066;-59
2022/03/24 05:14:56;;;;;;;41.70;26.27;;;;;;;;;;4987759;28;20060;-61
2022/03/24 05:17:22;;;;;;;42.55;26.80;;;;;;;;;;4970052;28;20050;-59
2022/03/24 05:19:49;;;;;;;46.72;27.75;;;;;;;;;;4987533;28;20423;-60
2022/03/24 05:22:15;;;;;;;40.83;25.33;;;;;;;;;;4986670;28;20050;-60
2022/03/24 05:24:41;;;;;;;47.58;27.35;;;;;;;;;;4986582;28;20042;-61
2022/03/24 05:27:08;;;;;;;41.80;24.63;;;;;;;;;;4986569;28;20538;-61
2022/03/24 05:29:34;;;;;;;51.28;28.88;;;;;;;;;;4966227;28;20054;-60
2022/03/24 05:32:00;;;;;;;46.47;27.88;;;;;;;;;;4968865;28;20046;-61
2022/03/24 05:34:26;;;;;;;45.97;25.88;;;;;;;;;;4984064;28;20088;-60
2022/03/24 05:36:53;;;;;;;48.83;27.30;;;;;;;;;;4969167;28;20444;-61
2022/03/24 05:39:18;;;;;;;41.40;24.60;;;3.40;99.90;;;;;;4984240;28;20042;-60
2022/03/24 05:41:44;;;;;;;40.78;25.70;;;;;;;;;;4983812;28;20084;-60
2022/03/24 05:44:10;;;;;;;43.97;24.58;;;;;;;;;;4986488;28;20141;-60
2022/03/24 05:46:39;;;;;;;37.47;23.33;;;;;;;;;;4981808;28;20051;-59
2022/03/24 05:49:06;;;;;;;44.03;24.17;;;;;;;;;;4981175;28;20404;-61
2022/03/24 05:51:32;;;;;;;40.10;23.10;;;;;;;;;;4986643;28;20045;-62
2022/03/24 05:53:58;;;;;;;40.60;24.67;;;;;;;;;;4981860;28;20046;-61
2022/03/24 05:56:24;;;;;;;43.03;25.83;;;;;;;;;;4982189;28;20042;-62
2022/03/24 05:58:50;;;;;;;52.55;29.08;;;;;;;;;;4983193;28;20057;-62
2022/03/24 06:01:16;;;;;;;52.45;31.00;;;;;;;;;;4964202;28;20057;-62
2022/03/24 06:03:45;;;;;;;53.10;31.42;;;;;;;;;;4983749;28;20046;-61
2022/03/24 06:06:12;;;;;;;52.72;29.50;;;;;;;;;;4983571;28;20474;-61
2022/03/24 06:08:40;;;;;;;47.50;28.63;;;;;;;;;;4983202;28;20125;-62
2022/03/24 06:11:06;;;;;;;44.30;26.92;;;4.40;99.90;;;;;;4984087;28;20046;-60
2022/03/24 06:13:32;;;;;;;42.67;25.13;;;;;;;;;;4966439;28;20559;-59
2022/03/24 06:16:01;;;;;;;44.47;26.80;;;;;;;;;;4982770;28;20095;-61
2022/03/24 06:18:28;;;;;;;43.28;27.38;;;;;;;;;;4965970;28;20530;-59
2022/03/24 06:20:54;;;;;;;49.35;28.58;;;;;;;;;;4985204;28;20057;-62
2022/03/24 06:23:20;;;;;;;53.03;30.80;;;;;;;;;;4969367;28;20058;-62
2022/03/24 06:25:46;;;;;;;52.50;31.38;;;;;;;;;;4968728;28;20050;-62
2022/03/24 06:28:12;;;;;;;49.80;31.58;;;;;;;;;;4987321;28;20096;-62
2022/03/24 06:30:37;;;;;;;55.78;32.97;;;5.40;99.90;;;;;;4983087;28;20050;-62
2022/03/24 06:33:04;;;;;;;55.45;33.30;;;;;;;;;;4971217;28;20045;-63
2022/03/24 06:35:30;;;;;;;55.15;34.10;;;;;;;;;;4954003;28;20411;-63
2022/03/24 06:37:56;;;;;;;57.95;33.85;;;5.30;99.90;;;;;;4976149;28;20030;-63
2022/03/24 06:40:22;;;;;;;56.90;34.85;;;;;;;;;;4962358;28;20050;-63
2022/03/24 06:42:47;;;;;;;59.30;34.60;;;6.10;99.90;;;;;;4974241;28;20070;-63
2022/03/24 06:45:13;;;;;;;56.30;34.72;;;6.10;99.90;;;;;;4971043;28;20066;-63
2022/03/24 06:47:40;;;;;;;60.50;38.30;;;6.20;99.90;;;;;;4990071;28;20042;-63
2022/03/24 06:50:12;;;;;;;62.33;37.53;;;6.30;99.90;;;;;;4990610;28;20031;-62
2022/03/24 06:52:37;;;;;;;57.55;37.50;;;6.60;99.90;;;;;;4973260;28;20041;-62
2022/03/24 06:55:05;;;;;;;66.70;38.33;;;6.80;99.90;;;;;;4989400;28;20042;-62
2022/03/24 06:57:30;;;;;;;71.97;43.03;;;6.80;99.90;;;;;;4972488;28;20484;-62
2022/03/24 06:59:56;;;;;;;68.57;38.70;;;6.90;99.90;;;;;;4990102;28;20046;-62
2022/03/24 07:02:21;;;;;;;71.60;40.00;;;7.30;99.90;;;;;;4990798;28;20038;-63
2022/03/24 07:04:47;;;;;;;66.35;41.88;;;7.90;99.90;;;;;;4973283;28;20047;-62
2022/03/24 07:07:13;;;;;;;62.95;40.65;;;8.70;99.90;;;;;;4973137;28;20047;-62
2022/03/24 07:09:39;;;;;;;66.05;39.42;;;9.40;99.90;;;;;;4990927;28;20080;-62
2022/03/24 07:12:05;;;;;;;61.08;37.90;;;10.10;99.90;;;;;;4990212;28;20053;-64
2022/03/24 07:14:30;;;;;;;63.22;40.72;;;10.90;99.90;;;;;;4990741;28;20503;-63
2022/03/24 07:16:56;;;;;;;56.95;37.95;;;11.70;99.90;;;;;;4990685;28;20130;-63
2022/03/24 07:19:21;;;;;;;61.58;38.33;;;12.30;99.90;;;;;;4973158;28;20505;-63
2022/03/24 07:21:47;;;;;;;62.97;39.83;;;13.20;99.90;;;;;;4972894;28;20050;-63
2022/03/24 07:24:13;;;;;;;64.65;40.45;;;13.50;99.90;;;;;;4990611;28;20042;-63
2022/03/24 07:26:39;;;;;;;64.20;39.00;;;14.10;99.90;;;;;;4992632;28;20042;-63
2022/03/24 07:29:05;;;;;;;63.92;43.08;;;15.00;99.90;;;;;;4994027;28;20035;-63
2022/03/24 07:31:31;;;;;;;64.35;42.85;;;15.30;99.90;;;;;;4993853;28;20416;-63
2022/03/24 07:33:57;;;;;;;60.75;42.60;;;15.40;99.90;;;;;;4993736;28;20050;-62
2022/03/24 07:36:24;;;;;;;66.97;45.08;;;16.00;99.90;;;;;;4976139;28;20557;-63
2022/03/24 07:38:50;;;;;;;65.60;43.17;;;16.50;99.90;;;;;;4993856;28;20122;-63
2022/03/24 07:41:16;;;;;;;67.00;44.97;;;16.50;99.90;;;;;;4993902;28;20050;-63
2022/03/24 07:43:41;;;;;;;65.72;45.92;;;16.40;99.90;;;;;;4993880;28;20129;-63
2022/03/24 07:46:07;;;;;;;63.25;44.17;;;16.70;99.90;;;;;;4993932;28;20046;-63
2022/03/24 07:48:33;;;;;;;61.20;43.55;;;17.30;99.90;;;;;;4993489;28;20092;-63
2022/03/24 07:51:00;;;;;;;60.20;42.55;;;17.70;99.90;;;;;;4975734;28;20042;-63
2022/03/24 07:53:28;;;;;;;67.88;44.38;;;17.90;99.90;;;;;;4976159;28;20050;-63
2022/03/24 07:55:57;;;;;;;61.15;43.22;;;18.00;99.90;;;;;;4976189;28;20046;-63
2022/03/24 07:58:22;;;;;;;57.83;41.22;;;18.20;99.90;;;;;;4993340;28;20057;-63
2022/03/24 08:00:48;;;;;;;56.97;41.70;;;18.30;99.90;;;;;;4959928;28;20483;-63
2022/03/24 08:03:16;;;;;;;58.83;42.10;;;18.40;99.90;;;;;;4976114;28;20046;-63
2022/03/24 08:05:42;;;;;;;56.97;41.15;;;18.50;99.90;;;;;;4993106;28;20042;-63
2022/03/24 08:08:12;;;;;;;62.97;41.45;;;18.10;99.90;;;;;;4976161;28;20073;-63
2022/03/24 08:10:42;;;;;;;56.55;42.00;;;16.80;99.90;;;;;;4975857;28;20042;-63
2022/03/24 08:13:10;;;;;;;59.50;42.20;;;17.30;99.90;;;;;;4993002;28;20066;-63
2022/03/24 08:15:36;;;;;;;59.42;42.72;;;18.10;99.90;;;;;;4993189;28;20030;-63
2022/03/24 08:18:04;;;;;;;59.00;41.30;;;18.30;99.90;;;;;;4978262;28;20035;-63
2022/03/24 08:20:33;;;;;;;68.70;40.70;;;18.50;99.90;;;;;;4972984;28;20051;-63
2022/03/24 08:22:59;;;;;;;55.25;38.60;;;18.70;99.90;;;;;;4973672;28;20395;-64
2022/03/24 08:25:25;;;;;;;54.58;36.53;;;18.80;99.90;;;;;;4973628;28;20114;-64
2022/03/24 08:27:51;;;;;;;54.95;36.38;;;18.60;99.90;;;;;;4973514;28;20138;-63
2022/03/24 08:30:16;;;;;;;49.05;37.17;;;18.80;99.90;;;;;;4973508;28;20042;-64
2022/03/24 08:33:02;;;;;;;58.35;37.22;;;19.10;99.90;;;;;;4973001;28;20085;-64
2022/03/24 08:35:28;;;;;;;53.58;37.75;;;19.30;99.90;;;;;;4984269;28;20070;-64
2022/03/24 08:37:55;;;;;;;54.03;37.60;;;19.90;99.90;;;;;;4969850;28;20081;-63
2022/03/24 08:40:21;;;;;;;52.70;36.28;;;19.10;99.90;;;;;;4965408;28;20078;-64
2022/03/24 08:42:47;;;;;;;51.58;36.38;;;19.30;99.90;;;;;;4991834;28;20038;-64
2022/03/24 08:45:15;;;;;;;54.10;37.28;;;19.30;99.90;;;;;;4974211;28;20103;-64
2022/03/24 08:47:41;;;;;;;59.30;37.13;;;19.70;99.90;;;;;;4991396;28;20103;-64
2022/03/24 08:50:08;;;;;;;51.00;36.85;;;19.60;99.90;;;;;;4974325;28;20046;-62
2022/03/24 08:52:35;;;;;;;46.70;34.63;;;20.20;99.90;;;;;;4991181;28;20122;-63
2022/03/24 08:55:02;;;;;;;57.78;37.65;;;20.30;99.90;;;;;;4990761;28;20488;-64
2022/03/24 08:57:28;;;;;;;53.22;35.88;;;19.70;99.90;;;;;;4973673;28;20054;-64
2022/03/24 08:59:56;;;;;;;47.83;35.20;;;19.90;99.90;;;;;;4966451;28;20065;-64
2022/03/24 09:02:22;;;;;;;52.00;35.80;;;20.30;99.90;;;;;;4963954;28;20091;-64
2022/03/24 09:04:48;;;;;;;51.42;35.78;;;20.60;99.90;;;;;;4981020;28;20031;-64
2022/03/24 09:07:14;;;;;;;49.22;35.58;;;21.20;99.90;;;;;;4958367;28;20046;-64
2022/03/24 09:09:40;;;;;;;46.45;35.17;;;22.30;99.80;;;;;;4983027;28;20069;-64
2022/03/24 09:12:07;;;;;;;49.53;34.38;;;23.30;98.80;;;;;;4990781;28;20432;-64
2022/03/24 09:14:32;;;;;;;54.58;34.97;;;24.50;97.50;;;;;;4972791;28;20137;-64
2022/03/24 09:16:58;;;;;;;47.38;33.67;;;25.00;95.90;;;;;;4988835;28;20122;-64
2022/03/24 09:19:24;;;;;;;51.72;33.47;;;25.70;94.50;;;;;;4990011;28;20133;-64
2022/03/24 09:21:49;;;;;;;46.45;34.03;;;26.80;93.20;;;;;;4972501;28;20129;-64
2022/03/24 09:24:15;;;;;;;50.42;34.13;;;27.40;91.70;;;;;;4972529;28;20098;-63
2022/03/24 09:26:40;;;;;;;50.28;34.90;;;28.00;90.00;;;;;;4990701;28;20080;-64
2022/03/24 09:29:06;;;;;;;52.97;36.42;;;28.60;88.00;;;;;;4973380;28;20449;-64
2022/03/24 09:31:32;;;;;;;49.72;35.80;;;27.90;86.00;;;;;;4972786;28;20046;-64
2022/03/24 09:33:57;;;;;;;51.83;36.70;;;27.10;85.80;;;;;;4989810;28;20027;-63
2022/03/24 09:36:23;;;;;;;54.30;37.10;;;26.10;86.40;;;;;;4980130;28;20129;-64
2022/03/24 09:38:49;;;;;;;52.50;35.33;;;25.10;86.80;;;;;;4970831;28;20073;-64
2022/03/24 09:41:18;;;;;;;46.63;34.55;;;24.10;88.20;;;;;;4974730;28;20504;-63
2022/03/24 09:43:45;;;;;;;49.13;36.17;;;23.30;89.20;;;;;;4973197;28;20404;-63
2022/03/24 09:46:10;;;;;;;46.40;33.50;;;22.90;89.60;;;;;;4958853;28;20043;-63
2022/03/24 09:48:36;;;;;;;47.35;33.90;;;22.40;90.10;;;;;;4953070;28;20043;-64
2022/03/24 09:51:02;;;;;;;52.78;34.45;;;22.40;90.40;;;;;;4970628;28;20043;-64
2022/03/24 09:53:28;;;;;;;47.50;33.65;;;22.10;90.50;;;;;;4968301;28;20042;-64
2022/03/24 09:55:54;;;;;;;48.80;34.20;;;21.80;90.70;;;;;;4990455;28;20041;-63
2022/03/24 09:58:24;;;;;;;47.40;34.42;;;21.60;91.20;;;;;;4990494;28;20049;-63
2022/03/24 10:00:50;;;;;;;49.13;35.38;;;21.60;91.40;;;;;;4990542;28;20038;-64
2022/03/24 10:03:17;;;;;;;49.75;34.75;;;21.60;91.40;;;;;;4972880;28;20088;-63
2022/03/24 10:06:07;;;;;;;46.90;34.22;;;21.70;91.30;;;;;;4990054;28;20054;-63
2022/03/24 10:08:34;;;;;;;49.95;35.22;;;21.40;91.40;;;;;;4963526;28;20050;-64
2022/03/24 10:11:06;;;;;;;53.13;35.13;;;21.80;91.70;;;;;;4990100;28;20046;-63
2022/03/24 10:13:53;;;;;;;57.05;35.75;;;21.60;91.70;;;;;;4990117;28;20077;-63
2022/03/24 10:16:34;;;;;;;48.28;33.72;;;21.70;90.80;;;;;;4972964;28;20054;-63
2022/03/24 10:19:02;;;;;;;50.38;33.42;;;21.70;91.90;;;;;;4990110;28;20050;-64
2022/03/24 10:21:29;;;;;;;46.03;33.80;;;21.70;91.90;;;;;;4972987;28;20199;-64
2022/03/24 10:23:57;;;;;;;52.70;34.17;;;21.50;91.80;;;;;;4989485;28;20046;-64
2022/03/24 10:26:38;;;;;;;48.65;33.33;;;21.60;91.70;;;;;;4987229;28;20088;-64
2022/03/24 10:29:03;;;;;;;50.88;35.20;;;21.90;92.00;;;;;;4969991;28;20150;-64
2022/03/24 10:31:35;;;;;;;47.00;33.50;;;21.90;91.80;;;;;;4969784;28;20646;-64
2022/03/24 10:34:00;;;;;;;48.10;32.38;;;21.60;91.90;;;;;;4987090;28;20038;-64
2022/03/24 10:36:27;;;;;;;44.75;31.67;;;21.70;91.80;;;;;;4987135;28;20046;-63
2022/03/24 10:38:56;;;;;;;46.08;31.98;;;21.40;91.30;;;;;;4987314;28;20088;-64
2022/03/24 10:41:28;;;;;;;47.67;31.92;;;21.40;91.40;;;;;;4987084;28;20046;-64
2022/03/24 10:43:57;;;;;;;52.00;29.98;;;21.50;92.00;;;;;;4986867;28;20050;-64
2022/03/24 10:46:25;;;;;;;46.03;29.52;;;21.40;91.70;;;;;;4986736;28;20528;-63
2022/03/24 10:48:53;;;;;;;39.38;28.83;;;21.20;91.30;;;;;;4987085;28;20053;-64
2022/03/24 10:51:24;;;;;;;44.28;28.73;;;21.20;91.40;;;;;;4970812;28;20103;-64
2022/03/24 10:53:50;;;;;;;40.67;27.45;;;21.30;91.60;;;;;;4963363;28;20050;-64
2022/03/24 10:56:20;;;;;;;42.50;26.63;;;21.20;91.50;;;;;;4970307;28;20070;-64
2022/03/24 10:59:03;;;;;;;44.35;29.95;;;21.20;91.80;;;;;;4952815;28;20082;-64
2022/03/24 11:01:30;;;;;;;45.80;29.08;;;20.80;92.00;;;;;;4972430;28;20054;-64
2022/03/24 11:03:56;;;;;;;43.53;28.55;;;20.90;92.30;;;;;;4956289;28;20096;-64
2022/03/24 11:06:23;;;;;;;36.47;25.60;;;21.30;92.00;;;;;;4975088;28;20050;-64
2022/03/24 11:08:57;;;;;;;35.47;23.83;;;20.60;91.30;;;;;;4975639;28;20077;-64
2022/03/24 11:11:23;;;;;;;35.50;23.10;;;20.80;91.40;;;;;;4992961;28;20042;-63
2022/03/24 11:13:59;;;;;;;39.55;25.10;;;20.60;91.20;;;;;;4971557;28;20126;-64
2022/03/24 11:16:27;;;;;;;36.90;23.33;;;20.80;90.70;;;;;;4992246;28;20038;-64
2022/03/24 11:18:54;;;;;;;35.53;22.40;;;20.50;91.70;;;;;;4974710;28;20119;-64
2022/03/24 11:21:33;;;;;;;35.58;23.25;;;20.40;91.70;;;;;;4992054;28;20042;-64
2022/03/24 11:24:00;;;;;;;35.80;23.88;;;20.30;91.60;;;;;;4992020;28;20042;-64
2022/03/24 11:26:26;;;;;;;33.35;22.45;;;20.80;91.60;;;;;;4992453;28;20034;-64
2022/03/24 11:28:57;;;;;;;40.90;25.92;;;20.50;91.30;;;;;;4992289;28;20046;-64
2022/03/24 11:31:31;;;;;;;39.38;24.40;;;20.60;91.60;;;;;;4972735;28;20402;-64
2022/03/24 11:34:00;;;;;;;38.43;23.40;;;20.50;91.50;;;;;;4989269;28;20043;-64
2022/03/24 11:36:27;;;;;;;37.75;24.35;;;20.50;91.30;;;;;;4991882;28;20282;-64
2022/03/24 11:38:59;;;;;;;39.20;23.60;;;20.50;91.20;;;;;;4991764;28;20546;-65
2022/03/24 11:41:29;;;;;;;40.92;25.42;;;20.40;91.10;;;;;;4974459;28;20094;-63
2022/03/24 11:44:01;;;;;;;35.92;22.73;;;20.40;91.10;;;;;;4972044;28;20039;-63
2022/03/24 11:46:48;;;;;;;37.13;22.73;;;20.50;91.20;;;;;;4990433;28;20062;-64
2022/03/24 11:49:16;;;;;;;33.05;22.90;;;20.50;91.50;;;;;;4969016;28;20100;-63
2022/03/24 11:51:43;;;;;;;43.13;24.83;;;20.50;91.40;;;;;;4972516;28;20110;-63
2022/03/24 11:54:09;;;;;;;39.70;24.20;;;20.40;91.30;;;;;;4985105;28;20059;-63
2022/03/24 11:56:36;;;;;;;35.42;21.23;;;20.40;91.60;;;;;;4991547;28;20042;-63
2022/03/24 11:59:01;;;;;;;35.13;22.10;;;20.30;91.60;;;;;;4974120;28;20042;-64
2022/03/24 12:01:30;;;;;;;33.63;22.23;;;20.50;91.40;;;;;;4959563;28;20073;-63
2022/03/24 12:04:03;;;;;;;38.60;24.50;;;20.60;91.10;;;;;;4972258;28;20633;-63
2022/03/24 12:06:44;;;;;;;37.65;24.65;;;20.50;90.70;;;;;;4955329;28;20078;-63
2022/03/24 12:09:12;;;;;;;38.80;23.90;;;22.20;92.30;;;;;;4955410;28;20043;-63
2022/03/24 12:11:53;;;;;;;37.67;25.00;;;20.50;91.30;;;;;;4972324;28;20062;-63
2022/03/24 12:14:42;;;;;;;39.03;25.63;;;20.50;92.20;;;;;;4972207;28;20055;-62
2022/03/24 12:17:19;;;;;;;39.28;24.70;;;20.10;92.20;;;;;;4955132;28;20134;-63
2022/03/24 12:19:50;;;;;;;38.30;24.98;;;20.20;91.30;;;;;;4955227;28;20042;-62
2022/03/24 12:22:36;;;;;;;36.47;23.52;;;20.40;91.60;;;;;;4972282;28;20126;-62
2022/03/24 12:25:01;;;;;;;;;;;20.40;92.60;;;;;;4953172;28;20047;-64
2022/03/24 12:27:31;;;;;;;39.00;24.85;;;20.30;91.90;;;;;;4952191;28;19971;-63
2022/03/24 12:30:20;;;;;;;34.30;24.30;;;20.40;91.80;;;;;;4952205;28;20396;-62
2022/03/24 12:33:07;;;;;;;38.40;23.67;;;20.50;92.20;;;;;;4974154;28;20459;-63
2022/03/24 12:35:38;;;;;;;34.63;23.63;;;20.20;92.10;;;;;;4988920;28;20042;-62
2022/03/24 12:38:28;;;;;;;38.10;23.48;;;20.20;91.80;;;;;;4988430;28;20558;-64
2022/03/24 12:41:06;;;;;;;35.22;22.40;;;20.30;91.30;;;;;;4988634;28;20977;-63
2022/03/24 12:43:55;;;;;;;37.28;24.65;;;20.30;91.40;;;;;;4971277;28;20414;-63
2022/03/24 12:46:44;;;;;;;37.28;24.30;;;20.30;91.80;;;;;;4970817;28;20042;-63
2022/03/24 12:49:16;;;;;;;36.55;23.80;;;20.40;91.20;;;;;;4969402;28;20512;-62
2022/03/24 12:52:03;;;;;;;34.17;23.23;;;20.20;91.00;;;;;;4968923;28;20088;-63
2022/03/24 12:54:52;;;;;;;33.50;23.52;;;20.40;91.60;;;;;;4969183;28;20126;-63
2022/03/24 12:57:23;;;;;;;36.58;21.98;;;20.40;92.20;;;;;;4968976;28;20047;-63
2022/03/24 12:59:49;;;;;;;34.50;21.50;;;20.10;92.20;;;;;;4979224;28;20080;-64
2022/03/24 13:02:14;;;;;;;35.65;20.80;;;20.30;92.00;;;;;;4988015;28;20054;-63
2022/03/24 13:04:40;;;;;;;33.20;22.55;;;20.50;91.90;;;;;;4954724;28;20057;-63
2022/03/24 13:07:07;;;;;;;34.75;21.60;;;20.50;91.90;;;;;;4970721;28;20042;-63
2022/03/24 13:09:32;;;;;;;30.13;20.25;;;20.30;91.70;;;;;;4970694;28;20070;-63
2022/03/24 13:12:05;;;;;;;32.42;21.33;;;20.50;92.10;;;;;;4970770;28;20127;-63